sensor_id;sensor_type;location;lat;lon;timestamp;P1;durP1;ratioP1;P2;durP2;ratioP2
65315;SDS011;51920;53.952;10.292;2024-02-26T00:02:07;20.95;;;11.30;;
65315;SDS011;51920;53.952;10.292;2024-02-26T00:04:34;22.47;;;12.07;;
65315;SDS011;51920;53.952;10.292;2024-02-26T00:07:01;20.23;;;10.85;;
65315;SDS011;51920;53.952;10.292;2024-02-26T00:09:28;23.63;;;12.95;;
65315;SDS011;51920;53.952;10.292;2024-02-26T00:11:55;21.10;;;10.95;;
65315;SDS011;51920;53.952;10.292;2024-02-26T00:14:22;22.88;;;12.07;;
65315;SDS011;51920;53.952;10.292;2024-02-26T00:16:49;21.63;;;11.73;;
65315;SDS011;51920;53.952;10.292;2024-02-26T00:19:16;21.35;;;11.80;;
65315;SDS011;51920;53.952;10.292;2024-02-26T00:21:43;23.08;;;12.20;;
65315;SDS011;51920;53.952;10.292;2024-02-26T00:24:10;17.08;;;10.25;;
65315;SDS011;51920;53.952;10.292;2024-02-26T00:26:36;20.20;;;11.15;;
65315;SDS011;51920;53.952;10.292;2024-02-26T00:29:03;21.17;;;11.57;;
65315;SDS011;51920;53.952;10.292;2024-02-26T00:31:30;19.63;;;11.18;;
65315;SDS011;51920;53.952;10.292;2024-02-26T00:33:57;19.80;;;11.27;;
65315;SDS011;51920;53.952;10.292;2024-02-26T00:36:24;19.92;;;10.68;;
65315;SDS011;51920;53.952;10.292;2024-02-26T00:38:51;17.52;;;10.18;;
65315;SDS011;51920;53.952;10.292;2024-02-26T00:41:18;18.50;;;10.40;;
65315;SDS011;51920;53.952;10.292;2024-02-26T00:43:46;19.80;;;11.00;;
65315;SDS011;51920;53.952;10.292;2024-02-26T00:46:13;23.45;;;11.80;;
65315;SDS011;51920;53.952;10.292;2024-02-26T00:48:40;19.67;;;11.05;;
65315;SDS011;51920;53.952;10.292;2024-02-26T00:51:07;20.02;;;10.30;;
65315;SDS011;51920;53.952;10.292;2024-02-26T00:53:35;18.30;;;10.13;;
65315;SDS011;51920;53.952;10.292;2024-02-26T00:56:02;20.20;;;10.25;;
65315;SDS011;51920;53.952;10.292;2024-02-26T00:58:29;18.08;;;10.07;;
65315;SDS011;51920;53.952;10.292;2024-02-26T01:00:55;20.08;;;10.38;;
65315;SDS011;51920;53.952;10.292;2024-02-26T01:03:23;18.58;;;10.38;;
65315;SDS011;51920;53.952;10.292;2024-02-26T01:05:49;19.30;;;10.33;;
65315;SDS011;51920;53.952;10.292;2024-02-26T01:08:17;17.42;;;10.05;;
65315;SDS011;51920;53.952;10.292;2024-02-26T01:10:44;19.45;;;9.98;;
65315;SDS011;51920;53.952;10.292;2024-02-26T01:13:10;18.27;;;9.88;;
65315;SDS011;51920;53.952;10.292;2024-02-26T01:15:37;17.20;;;9.48;;
65315;SDS011;51920;53.952;10.292;2024-02-26T01:18:04;18.67;;;9.20;;
65315;SDS011;51920;53.952;10.292;2024-02-26T01:20:31;14.48;;;7.97;;
65315;SDS011;51920;53.952;10.292;2024-02-26T01:22:58;13.93;;;8.00;;
65315;SDS011;51920;53.952;10.292;2024-02-26T01:25:25;14.77;;;7.50;;
65315;SDS011;51920;53.952;10.292;2024-02-26T01:27:52;14.10;;;7.70;;
65315;SDS011;51920;53.952;10.292;2024-02-26T01:30:18;14.40;;;7.20;;
65315;SDS011;51920;53.952;10.292;2024-02-26T01:32:45;12.95;;;7.60;;
65315;SDS011;51920;53.952;10.292;2024-02-26T01:35:12;14.63;;;8.20;;
65315;SDS011;51920;53.952;10.292;2024-02-26T01:37:39;15.15;;;8.20;;
65315;SDS011;51920;53.952;10.292;2024-02-26T01:40:06;14.73;;;7.65;;
65315;SDS011;51920;53.952;10.292;2024-02-26T01:42:34;12.97;;;7.20;;
65315;SDS011;51920;53.952;10.292;2024-02-26T01:45:01;15.13;;;7.85;;
65315;SDS011;51920;53.952;10.292;2024-02-26T01:47:28;14.25;;;7.18;;
65315;SDS011;51920;53.952;10.292;2024-02-26T01:49:55;13.38;;;6.65;;
65315;SDS011;51920;53.952;10.292;2024-02-26T01:52:22;11.88;;;6.78;;
65315;SDS011;51920;53.952;10.292;2024-02-26T01:54:49;13.63;;;7.30;;
65315;SDS011;51920;53.952;10.292;2024-02-26T01:57:17;15.20;;;7.53;;
65315;SDS011;51920;53.952;10.292;2024-02-26T01:59:44;16.33;;;9.00;;
65315;SDS011;51920;53.952;10.292;2024-02-26T02:02:12;15.77;;;7.75;;
65315;SDS011;51920;53.952;10.292;2024-02-26T02:04:40;15.90;;;8.13;;
65315;SDS011;51920;53.952;10.292;2024-02-26T02:07:07;13.57;;;7.47;;
65315;SDS011;51920;53.952;10.292;2024-02-26T02:09:34;16.45;;;7.88;;
65315;SDS011;51920;53.952;10.292;2024-02-26T02:12:01;12.50;;;7.03;;
65315;SDS011;51920;53.952;10.292;2024-02-26T02:14:29;14.18;;;7.07;;
65315;SDS011;51920;53.952;10.292;2024-02-26T02:16:56;13.25;;;6.85;;
65315;SDS011;51920;53.952;10.292;2024-02-26T02:19:23;12.13;;;6.70;;
65315;SDS011;51920;53.952;10.292;2024-02-26T02:21:49;12.60;;;6.70;;
65315;SDS011;51920;53.952;10.292;2024-02-26T02:24:16;13.55;;;6.60;;
65315;SDS011;51920;53.952;10.292;2024-02-26T02:26:43;11.88;;;6.88;;
65315;SDS011;51920;53.952;10.292;2024-02-26T02:29:10;12.57;;;6.22;;
65315;SDS011;51920;53.952;10.292;2024-02-26T02:31:38;10.53;;;5.90;;
65315;SDS011;51920;53.952;10.292;2024-02-26T02:34:05;11.57;;;6.00;;
65315;SDS011;51920;53.952;10.292;2024-02-26T02:36:32;12.20;;;6.28;;
65315;SDS011;51920;53.952;10.292;2024-02-26T02:38:59;11.48;;;5.90;;
65315;SDS011;51920;53.952;10.292;2024-02-26T02:41:26;13.38;;;6.28;;
65315;SDS011;51920;53.952;10.292;2024-02-26T02:43:53;12.80;;;6.40;;
65315;SDS011;51920;53.952;10.292;2024-02-26T02:46:20;11.63;;;6.38;;
65315;SDS011;51920;53.952;10.292;2024-02-26T02:48:47;12.10;;;6.70;;
65315;SDS011;51920;53.952;10.292;2024-02-26T02:51:16;12.85;;;6.00;;
65315;SDS011;51920;53.952;10.292;2024-02-26T02:53:43;10.77;;;6.50;;
65315;SDS011;51920;53.952;10.292;2024-02-26T02:56:10;13.77;;;6.77;;
65315;SDS011;51920;53.952;10.292;2024-02-26T02:58:37;14.85;;;6.85;;
65315;SDS011;51920;53.952;10.292;2024-02-26T03:01:03;13.57;;;6.70;;
65315;SDS011;51920;53.952;10.292;2024-02-26T03:03:31;13.20;;;6.55;;
65315;SDS011;51920;53.952;10.292;2024-02-26T03:05:57;20.20;;;7.15;;
65315;SDS011;51920;53.952;10.292;2024-02-26T03:08:24;15.60;;;7.53;;
65315;SDS011;51920;53.952;10.292;2024-02-26T03:10:52;17.90;;;7.28;;
65315;SDS011;51920;53.952;10.292;2024-02-26T03:13:19;16.50;;;7.30;;
65315;SDS011;51920;53.952;10.292;2024-02-26T03:15:46;15.30;;;7.22;;
65315;SDS011;51920;53.952;10.292;2024-02-26T03:18:13;15.55;;;8.13;;
65315;SDS011;51920;53.952;10.292;2024-02-26T03:20:40;16.63;;;7.63;;
65315;SDS011;51920;53.952;10.292;2024-02-26T03:23:06;16.25;;;7.78;;
65315;SDS011;51920;53.952;10.292;2024-02-26T03:25:36;18.95;;;8.38;;
65315;SDS011;51920;53.952;10.292;2024-02-26T03:28:03;20.00;;;8.07;;
65315;SDS011;51920;53.952;10.292;2024-02-26T03:30:30;18.67;;;8.23;;
65315;SDS011;51920;53.952;10.292;2024-02-26T03:32:57;14.67;;;7.07;;
65315;SDS011;51920;53.952;10.292;2024-02-26T03:35:24;16.52;;;7.53;;
65315;SDS011;51920;53.952;10.292;2024-02-26T03:37:51;16.85;;;8.02;;
65315;SDS011;51920;53.952;10.292;2024-02-26T03:40:18;14.98;;;7.25;;
65315;SDS011;51920;53.952;10.292;2024-02-26T03:42:46;14.05;;;7.30;;
65315;SDS011;51920;53.952;10.292;2024-02-26T03:45:13;13.93;;;6.90;;
65315;SDS011;51920;53.952;10.292;2024-02-26T03:47:40;13.75;;;6.53;;
65315;SDS011;51920;53.952;10.292;2024-02-26T03:50:07;16.90;;;7.10;;
65315;SDS011;51920;53.952;10.292;2024-02-26T03:52:34;13.98;;;6.90;;
65315;SDS011;51920;53.952;10.292;2024-02-26T03:55:01;16.88;;;7.28;;
65315;SDS011;51920;53.952;10.292;2024-02-26T03:57:28;14.50;;;6.50;;
65315;SDS011;51920;53.952;10.292;2024-02-26T03:59:55;13.63;;;6.45;;
65315;SDS011;51920;53.952;10.292;2024-02-26T04:02:22;12.45;;;6.65;;
65315;SDS011;51920;53.952;10.292;2024-02-26T04:04:49;14.50;;;7.30;;
65315;SDS011;51920;53.952;10.292;2024-02-26T04:07:16;13.18;;;6.93;;
65315;SDS011;51920;53.952;10.292;2024-02-26T04:09:44;13.70;;;6.80;;
65315;SDS011;51920;53.952;10.292;2024-02-26T04:12:11;13.10;;;6.70;;
65315;SDS011;51920;53.952;10.292;2024-02-26T04:14:37;13.73;;;6.85;;
65315;SDS011;51920;53.952;10.292;2024-02-26T04:17:04;15.40;;;7.28;;
65315;SDS011;51920;53.952;10.292;2024-02-26T04:19:31;12.73;;;6.47;;
65315;SDS011;51920;53.952;10.292;2024-02-26T04:21:58;14.50;;;7.10;;
65315;SDS011;51920;53.952;10.292;2024-02-26T04:24:26;14.30;;;7.43;;
65315;SDS011;51920;53.952;10.292;2024-02-26T04:26:53;17.48;;;7.93;;
65315;SDS011;51920;53.952;10.292;2024-02-26T04:29:19;15.27;;;7.28;;
65315;SDS011;51920;53.952;10.292;2024-02-26T04:31:46;15.32;;;7.65;;
65315;SDS011;51920;53.952;10.292;2024-02-26T04:34:14;14.60;;;7.30;;
65315;SDS011;51920;53.952;10.292;2024-02-26T04:36:41;17.55;;;7.43;;
65315;SDS011;51920;53.952;10.292;2024-02-26T04:39:09;18.13;;;8.40;;
65315;SDS011;51920;53.952;10.292;2024-02-26T04:41:36;18.05;;;7.63;;
65315;SDS011;51920;53.952;10.292;2024-02-26T04:44:03;15.98;;;7.55;;
65315;SDS011;51920;53.952;10.292;2024-02-26T04:46:30;19.17;;;7.93;;
65315;SDS011;51920;53.952;10.292;2024-02-26T04:48:57;15.45;;;7.55;;
65315;SDS011;51920;53.952;10.292;2024-02-26T04:51:25;19.27;;;9.05;;
65315;SDS011;51920;53.952;10.292;2024-02-26T04:53:52;18.15;;;7.85;;
65315;SDS011;51920;53.952;10.292;2024-02-26T04:56:20;21.45;;;8.55;;
65315;SDS011;51920;53.952;10.292;2024-02-26T04:58:48;17.83;;;8.17;;
65315;SDS011;51920;53.952;10.292;2024-02-26T05:01:15;23.65;;;9.02;;
65315;SDS011;51920;53.952;10.292;2024-02-26T05:03:43;27.02;;;9.48;;
65315;SDS011;51920;53.952;10.292;2024-02-26T05:06:10;20.85;;;9.20;;
65315;SDS011;51920;53.952;10.292;2024-02-26T05:08:37;22.65;;;10.00;;
65315;SDS011;51920;53.952;10.292;2024-02-26T05:11:05;22.57;;;8.93;;
65315;SDS011;51920;53.952;10.292;2024-02-26T05:13:35;22.83;;;8.98;;
65315;SDS011;51920;53.952;10.292;2024-02-26T05:16:02;25.40;;;10.57;;
65315;SDS011;51920;53.952;10.292;2024-02-26T05:18:29;33.22;;;10.55;;
65315;SDS011;51920;53.952;10.292;2024-02-26T05:20:56;26.40;;;11.15;;
65315;SDS011;51920;53.952;10.292;2024-02-26T05:23:23;30.13;;;9.87;;
65315;SDS011;51920;53.952;10.292;2024-02-26T05:25:49;27.25;;;10.25;;
65315;SDS011;51920;53.952;10.292;2024-02-26T05:28:16;25.95;;;10.23;;
65315;SDS011;51920;53.952;10.292;2024-02-26T05:30:47;33.67;;;10.50;;
65315;SDS011;51920;53.952;10.292;2024-02-26T05:33:14;24.95;;;10.05;;
65315;SDS011;51920;53.952;10.292;2024-02-26T05:35:43;25.20;;;9.77;;
65315;SDS011;51920;53.952;10.292;2024-02-26T05:38:10;30.83;;;10.40;;
65315;SDS011;51920;53.952;10.292;2024-02-26T05:40:37;29.70;;;10.70;;
65315;SDS011;51920;53.952;10.292;2024-02-26T05:43:04;33.08;;;9.45;;
65315;SDS011;51920;53.952;10.292;2024-02-26T05:45:31;38.35;;;9.07;;
65315;SDS011;51920;53.952;10.292;2024-02-26T05:47:59;20.10;;;8.30;;
65315;SDS011;51920;53.952;10.292;2024-02-26T05:50:26;35.17;;;9.30;;
65315;SDS011;51920;53.952;10.292;2024-02-26T05:52:53;20.65;;;8.82;;
65315;SDS011;51920;53.952;10.292;2024-02-26T05:55:20;30.02;;;8.00;;
65315;SDS011;51920;53.952;10.292;2024-02-26T05:57:46;31.42;;;7.80;;
65315;SDS011;51920;53.952;10.292;2024-02-26T06:00:13;17.47;;;7.67;;
65315;SDS011;51920;53.952;10.292;2024-02-26T06:02:41;22.02;;;6.60;;
65315;SDS011;51920;53.952;10.292;2024-02-26T06:05:08;15.25;;;7.03;;
65315;SDS011;51920;53.952;10.292;2024-02-26T06:07:35;28.30;;;7.05;;
65315;SDS011;51920;53.952;10.292;2024-02-26T06:10:02;16.75;;;6.68;;
65315;SDS011;51920;53.952;10.292;2024-02-26T06:12:31;18.23;;;6.33;;
65315;SDS011;51920;53.952;10.292;2024-02-26T06:14:59;17.30;;;7.43;;
65315;SDS011;51920;53.952;10.292;2024-02-26T06:17:28;21.73;;;7.25;;
65315;SDS011;51920;53.952;10.292;2024-02-26T06:19:54;18.08;;;7.30;;
65315;SDS011;51920;53.952;10.292;2024-02-26T06:22:21;21.02;;;8.07;;
65315;SDS011;51920;53.952;10.292;2024-02-26T06:24:48;32.47;;;8.07;;
65315;SDS011;51920;53.952;10.292;2024-02-26T06:27:15;27.00;;;8.30;;
65315;SDS011;51920;53.952;10.292;2024-02-26T06:29:42;21.80;;;8.27;;
65315;SDS011;51920;53.952;10.292;2024-02-26T06:32:09;29.70;;;7.82;;
65315;SDS011;51920;53.952;10.292;2024-02-26T06:34:36;18.08;;;7.88;;
65315;SDS011;51920;53.952;10.292;2024-02-26T06:37:05;46.17;;;8.27;;
65315;SDS011;51920;53.952;10.292;2024-02-26T06:39:32;24.23;;;7.90;;
65315;SDS011;51920;53.952;10.292;2024-02-26T06:41:59;26.15;;;8.98;;
65315;SDS011;51920;53.952;10.292;2024-02-26T06:44:28;28.25;;;8.20;;
65315;SDS011;51920;53.952;10.292;2024-02-26T06:46:58;36.30;;;8.50;;
65315;SDS011;51920;53.952;10.292;2024-02-26T06:49:26;24.23;;;7.77;;
65315;SDS011;51920;53.952;10.292;2024-02-26T06:51:54;29.90;;;8.45;;
65315;SDS011;51920;53.952;10.292;2024-02-26T06:54:21;32.30;;;8.60;;
65315;SDS011;51920;53.952;10.292;2024-02-26T06:56:48;26.88;;;8.23;;
65315;SDS011;51920;53.952;10.292;2024-02-26T06:59:15;20.88;;;8.52;;
65315;SDS011;51920;53.952;10.292;2024-02-26T07:01:42;16.40;;;7.20;;
65315;SDS011;51920;53.952;10.292;2024-02-26T07:04:09;18.45;;;7.20;;
65315;SDS011;51920;53.952;10.292;2024-02-26T07:06:37;22.70;;;7.45;;
65315;SDS011;51920;53.952;10.292;2024-02-26T07:09:04;19.40;;;7.80;;
65315;SDS011;51920;53.952;10.292;2024-02-26T07:11:31;19.08;;;7.47;;
65315;SDS011;51920;53.952;10.292;2024-02-26T07:13:58;18.90;;;7.93;;
65315;SDS011;51920;53.952;10.292;2024-02-26T07:16:25;18.85;;;7.22;;
65315;SDS011;51920;53.952;10.292;2024-02-26T07:18:53;23.63;;;7.65;;
65315;SDS011;51920;53.952;10.292;2024-02-26T07:21:19;19.80;;;7.07;;
65315;SDS011;51920;53.952;10.292;2024-02-26T07:23:46;19.17;;;6.43;;
65315;SDS011;51920;53.952;10.292;2024-02-26T07:26:13;23.67;;;7.20;;
65315;SDS011;51920;53.952;10.292;2024-02-26T07:28:41;24.95;;;7.10;;
65315;SDS011;51920;53.952;10.292;2024-02-26T07:31:07;18.98;;;6.85;;
65315;SDS011;51920;53.952;10.292;2024-02-26T07:33:34;18.27;;;7.13;;
65315;SDS011;51920;53.952;10.292;2024-02-26T07:36:01;20.17;;;7.85;;
65315;SDS011;51920;53.952;10.292;2024-02-26T07:38:28;20.03;;;7.60;;
65315;SDS011;51920;53.952;10.292;2024-02-26T07:40:56;15.32;;;6.35;;
65315;SDS011;51920;53.952;10.292;2024-02-26T07:43:24;25.55;;;7.20;;
65315;SDS011;51920;53.952;10.292;2024-02-26T07:45:51;16.40;;;6.15;;
65315;SDS011;51920;53.952;10.292;2024-02-26T07:48:18;20.40;;;6.95;;
65315;SDS011;51920;53.952;10.292;2024-02-26T07:50:45;21.70;;;7.00;;
65315;SDS011;51920;53.952;10.292;2024-02-26T07:53:11;20.40;;;7.07;;
65315;SDS011;51920;53.952;10.292;2024-02-26T07:55:39;17.48;;;7.40;;
65315;SDS011;51920;53.952;10.292;2024-02-26T07:58:06;17.27;;;7.07;;
65315;SDS011;51920;53.952;10.292;2024-02-26T08:00:34;20.10;;;7.53;;
65315;SDS011;51920;53.952;10.292;2024-02-26T08:03:01;21.17;;;8.07;;
65315;SDS011;51920;53.952;10.292;2024-02-26T08:05:28;19.50;;;7.70;;
65315;SDS011;51920;53.952;10.292;2024-02-26T08:07:55;19.10;;;8.00;;
65315;SDS011;51920;53.952;10.292;2024-02-26T08:10:23;19.63;;;7.93;;
65315;SDS011;51920;53.952;10.292;2024-02-26T08:12:50;19.73;;;7.53;;
65315;SDS011;51920;53.952;10.292;2024-02-26T08:15:17;20.30;;;7.87;;
65315;SDS011;51920;53.952;10.292;2024-02-26T08:17:45;17.23;;;7.78;;
65315;SDS011;51920;53.952;10.292;2024-02-26T08:20:14;19.08;;;7.88;;
65315;SDS011;51920;53.952;10.292;2024-02-26T08:22:41;18.05;;;7.75;;
65315;SDS011;51920;53.952;10.292;2024-02-26T08:25:08;18.02;;;7.50;;
65315;SDS011;51920;53.952;10.292;2024-02-26T08:27:36;18.70;;;7.77;;
65315;SDS011;51920;53.952;10.292;2024-02-26T08:30:03;17.48;;;7.35;;
65315;SDS011;51920;53.952;10.292;2024-02-26T08:32:30;16.98;;;7.63;;
65315;SDS011;51920;53.952;10.292;2024-02-26T08:34:57;17.23;;;7.40;;
65315;SDS011;51920;53.952;10.292;2024-02-26T08:37:24;15.73;;;7.05;;
65315;SDS011;51920;53.952;10.292;2024-02-26T08:39:51;17.67;;;7.40;;
65315;SDS011;51920;53.952;10.292;2024-02-26T08:42:17;16.10;;;7.38;;
65315;SDS011;51920;53.952;10.292;2024-02-26T08:44:44;14.90;;;6.65;;
65315;SDS011;51920;53.952;10.292;2024-02-26T08:47:11;14.98;;;6.90;;
65315;SDS011;51920;53.952;10.292;2024-02-26T08:49:42;15.75;;;7.00;;
65315;SDS011;51920;53.952;10.292;2024-02-26T08:52:09;14.73;;;6.20;;
65315;SDS011;51920;53.952;10.292;2024-02-26T08:54:36;15.65;;;6.45;;
65315;SDS011;51920;53.952;10.292;2024-02-26T08:57:03;14.77;;;6.70;;
65315;SDS011;51920;53.952;10.292;2024-02-26T08:59:30;14.70;;;6.70;;
65315;SDS011;51920;53.952;10.292;2024-02-26T09:01:57;15.82;;;6.47;;
65315;SDS011;51920;53.952;10.292;2024-02-26T09:04:24;13.67;;;5.97;;
65315;SDS011;51920;53.952;10.292;2024-02-26T09:06:51;14.68;;;6.63;;
65315;SDS011;51920;53.952;10.292;2024-02-26T09:09:18;16.02;;;6.55;;
65315;SDS011;51920;53.952;10.292;2024-02-26T09:11:45;14.95;;;6.53;;
65315;SDS011;51920;53.952;10.292;2024-02-26T09:14:12;18.65;;;7.35;;
65315;SDS011;51920;53.952;10.292;2024-02-26T09:16:39;21.83;;;6.73;;
65315;SDS011;51920;53.952;10.292;2024-02-26T09:19:06;19.23;;;6.95;;
65315;SDS011;51920;53.952;10.292;2024-02-26T09:21:33;20.05;;;7.72;;
65315;SDS011;51920;53.952;10.292;2024-02-26T09:24:00;18.35;;;6.68;;
65315;SDS011;51920;53.952;10.292;2024-02-26T09:26:26;17.65;;;6.50;;
65315;SDS011;51920;53.952;10.292;2024-02-26T09:28:53;24.63;;;7.10;;
65315;SDS011;51920;53.952;10.292;2024-02-26T09:31:20;19.35;;;6.97;;
65315;SDS011;51920;53.952;10.292;2024-02-26T09:33:47;24.40;;;7.13;;
65315;SDS011;51920;53.952;10.292;2024-02-26T09:36:14;19.55;;;6.78;;
65315;SDS011;51920;53.952;10.292;2024-02-26T09:38:41;20.33;;;7.18;;
65315;SDS011;51920;53.952;10.292;2024-02-26T09:41:16;26.20;;;7.53;;
65315;SDS011;51920;53.952;10.292;2024-02-26T09:43:44;19.58;;;6.63;;
65315;SDS011;51920;53.952;10.292;2024-02-26T09:46:14;21.42;;;7.72;;
65315;SDS011;51920;53.952;10.292;2024-02-26T09:48:44;24.45;;;8.38;;
65315;SDS011;51920;53.952;10.292;2024-02-26T09:51:11;22.60;;;6.72;;
65315;SDS011;51920;53.952;10.292;2024-02-26T09:53:39;22.23;;;7.20;;
65315;SDS011;51920;53.952;10.292;2024-02-26T09:56:09;29.13;;;7.18;;
65315;SDS011;51920;53.952;10.292;2024-02-26T09:58:39;28.60;;;7.40;;
65315;SDS011;51920;53.952;10.292;2024-02-26T10:01:10;22.10;;;7.30;;
65315;SDS011;51920;53.952;10.292;2024-02-26T10:03:43;21.27;;;6.80;;
65315;SDS011;51920;53.952;10.292;2024-02-26T10:06:11;19.80;;;6.70;;
65315;SDS011;51920;53.952;10.292;2024-02-26T10:08:41;27.23;;;7.55;;
65315;SDS011;51920;53.952;10.292;2024-02-26T10:11:08;28.25;;;8.68;;
65315;SDS011;51920;53.952;10.292;2024-02-26T10:13:36;22.92;;;7.60;;
65315;SDS011;51920;53.952;10.292;2024-02-26T10:16:03;21.92;;;7.88;;
65315;SDS011;51920;53.952;10.292;2024-02-26T10:21:17;23.58;;;7.60;;
65315;SDS011;51920;53.952;10.292;2024-02-26T10:23:46;29.73;;;8.75;;
65315;SDS011;51920;53.952;10.292;2024-02-26T10:26:20;23.05;;;7.90;;
65315;SDS011;51920;53.952;10.292;2024-02-26T10:28:47;28.88;;;9.88;;
65315;SDS011;51920;53.952;10.292;2024-02-26T10:31:15;30.30;;;9.37;;
65315;SDS011;51920;53.952;10.292;2024-02-26T10:33:42;24.23;;;8.65;;
65315;SDS011;51920;53.952;10.292;2024-02-26T10:36:10;24.92;;;8.35;;
65315;SDS011;51920;53.952;10.292;2024-02-26T10:38:37;26.10;;;8.48;;
65315;SDS011;51920;53.952;10.292;2024-02-26T10:41:05;29.17;;;9.15;;
65315;SDS011;51920;53.952;10.292;2024-02-26T10:43:33;26.13;;;8.77;;
65315;SDS011;51920;53.952;10.292;2024-02-26T10:45:59;26.88;;;9.18;;
65315;SDS011;51920;53.952;10.292;2024-02-26T10:48:26;25.08;;;8.93;;
65315;SDS011;51920;53.952;10.292;2024-02-26T10:50:53;29.23;;;9.60;;
65315;SDS011;51920;53.952;10.292;2024-02-26T10:53:23;28.00;;;9.80;;
65315;SDS011;51920;53.952;10.292;2024-02-26T10:55:57;27.27;;;8.77;;
65315;SDS011;51920;53.952;10.292;2024-02-26T10:58:28;24.90;;;9.40;;
65315;SDS011;51920;53.952;10.292;2024-02-26T11:00:56;26.92;;;10.00;;
65315;SDS011;51920;53.952;10.292;2024-02-26T11:03:24;25.90;;;9.57;;
65315;SDS011;51920;53.952;10.292;2024-02-26T11:05:51;27.25;;;10.60;;
65315;SDS011;51920;53.952;10.292;2024-02-26T11:08:19;23.67;;;9.33;;
65315;SDS011;51920;53.952;10.292;2024-02-26T11:10:54;29.70;;;9.48;;
65315;SDS011;51920;53.952;10.292;2024-02-26T11:13:23;25.38;;;9.48;;
65315;SDS011;51920;53.952;10.292;2024-02-26T11:15:56;25.60;;;9.25;;
65315;SDS011;51920;53.952;10.292;2024-02-26T11:18:26;25.58;;;9.65;;
65315;SDS011;51920;53.952;10.292;2024-02-26T11:20:54;26.77;;;9.77;;
65315;SDS011;51920;53.952;10.292;2024-02-26T11:23:23;26.27;;;9.50;;
65315;SDS011;51920;53.952;10.292;2024-02-26T11:25:50;27.70;;;10.18;;
65315;SDS011;51920;53.952;10.292;2024-02-26T11:28:20;27.35;;;10.23;;
65315;SDS011;51920;53.952;10.292;2024-02-26T11:30:49;24.58;;;10.00;;
65315;SDS011;51920;53.952;10.292;2024-02-26T11:33:16;25.87;;;9.10;;
65315;SDS011;51920;53.952;10.292;2024-02-26T11:35:43;27.38;;;10.32;;
65315;SDS011;51920;53.952;10.292;2024-02-26T11:38:16;22.73;;;9.20;;
65315;SDS011;51920;53.952;10.292;2024-02-26T11:40:46;25.33;;;9.90;;
65315;SDS011;51920;53.952;10.292;2024-02-26T11:43:13;24.45;;;9.82;;
65315;SDS011;51920;53.952;10.292;2024-02-26T11:48:16;23.02;;;8.93;;
65315;SDS011;51920;53.952;10.292;2024-02-26T11:50:53;25.20;;;9.48;;
65315;SDS011;51920;53.952;10.292;2024-02-26T11:53:28;24.48;;;9.50;;
65315;SDS011;51920;53.952;10.292;2024-02-26T11:56:19;24.80;;;10.55;;
65315;SDS011;51920;53.952;10.292;2024-02-26T11:58:56;24.70;;;9.60;;
65315;SDS011;51920;53.952;10.292;2024-02-26T12:04:07;22.27;;;9.15;;
65315;SDS011;51920;53.952;10.292;2024-02-26T12:06:41;23.02;;;9.45;;
65315;SDS011;51920;53.952;10.292;2024-02-26T12:09:09;23.95;;;9.73;;
65315;SDS011;51920;53.952;10.292;2024-02-26T12:11:40;24.23;;;10.10;;
65315;SDS011;51920;53.952;10.292;2024-02-26T12:14:09;23.60;;;9.38;;
65315;SDS011;51920;53.952;10.292;2024-02-26T12:16:37;24.63;;;10.45;;
65315;SDS011;51920;53.952;10.292;2024-02-26T12:19:05;22.35;;;9.45;;
65315;SDS011;51920;53.952;10.292;2024-02-26T12:21:37;23.48;;;10.45;;
65315;SDS011;51920;53.952;10.292;2024-02-26T12:24:10;23.43;;;9.50;;
65315;SDS011;51920;53.952;10.292;2024-02-26T12:26:42;23.08;;;10.18;;
65315;SDS011;51920;53.952;10.292;2024-02-26T12:29:09;20.27;;;9.05;;
65315;SDS011;51920;53.952;10.292;2024-02-26T12:31:37;20.10;;;9.43;;
65315;SDS011;51920;53.952;10.292;2024-02-26T12:34:06;22.65;;;9.85;;
65315;SDS011;51920;53.952;10.292;2024-02-26T12:36:33;22.73;;;9.67;;
65315;SDS011;51920;53.952;10.292;2024-02-26T12:39:05;22.35;;;9.48;;
65315;SDS011;51920;53.952;10.292;2024-02-26T12:41:33;21.95;;;9.48;;
65315;SDS011;51920;53.952;10.292;2024-02-26T12:44:00;24.20;;;9.50;;
65315;SDS011;51920;53.952;10.292;2024-02-26T12:46:27;22.95;;;10.27;;
65315;SDS011;51920;53.952;10.292;2024-02-26T12:48:57;22.23;;;9.40;;
65315;SDS011;51920;53.952;10.292;2024-02-26T12:51:26;21.95;;;9.60;;
65315;SDS011;51920;53.952;10.292;2024-02-26T12:53:53;25.48;;;10.60;;
65315;SDS011;51920;53.952;10.292;2024-02-26T12:56:22;20.40;;;9.00;;
65315;SDS011;51920;53.952;10.292;2024-02-26T12:58:50;21.52;;;9.80;;
65315;SDS011;51920;53.952;10.292;2024-02-26T13:01:19;18.27;;;8.80;;
65315;SDS011;51920;53.952;10.292;2024-02-26T13:03:49;20.55;;;9.25;;
65315;SDS011;51920;53.952;10.292;2024-02-26T13:06:18;19.60;;;9.40;;
65315;SDS011;51920;53.952;10.292;2024-02-26T13:08:46;20.30;;;9.25;;
65315;SDS011;51920;53.952;10.292;2024-02-26T13:11:13;17.90;;;8.27;;
65315;SDS011;51920;53.952;10.292;2024-02-26T13:13:41;16.80;;;7.57;;
65315;SDS011;51920;53.952;10.292;2024-02-26T13:16:10;16.98;;;8.13;;
65315;SDS011;51920;53.952;10.292;2024-02-26T13:18:40;16.33;;;7.63;;
65315;SDS011;51920;53.952;10.292;2024-02-26T13:21:08;15.93;;;7.22;;
65315;SDS011;51920;53.952;10.292;2024-02-26T13:23:37;15.15;;;7.28;;
65315;SDS011;51920;53.952;10.292;2024-02-26T13:26:05;14.33;;;6.67;;
65315;SDS011;51920;53.952;10.292;2024-02-26T13:28:32;16.60;;;7.18;;
65315;SDS011;51920;53.952;10.292;2024-02-26T13:31:00;15.85;;;7.88;;
65315;SDS011;51920;53.952;10.292;2024-02-26T13:33:28;13.88;;;6.22;;
65315;SDS011;51920;53.952;10.292;2024-02-26T13:35:56;15.70;;;7.00;;
65315;SDS011;51920;53.952;10.292;2024-02-26T13:38:23;14.47;;;6.43;;
65315;SDS011;51920;53.952;10.292;2024-02-26T13:40:51;14.77;;;6.47;;
65315;SDS011;51920;53.952;10.292;2024-02-26T13:43:19;13.13;;;6.63;;
65315;SDS011;51920;53.952;10.292;2024-02-26T13:45:46;15.45;;;7.15;;
65315;SDS011;51920;53.952;10.292;2024-02-26T13:48:14;12.15;;;6.55;;
65315;SDS011;51920;53.952;10.292;2024-02-26T13:50:41;11.40;;;6.30;;
65315;SDS011;51920;53.952;10.292;2024-02-26T13:53:12;13.15;;;6.00;;
65315;SDS011;51920;53.952;10.292;2024-02-26T13:55:42;12.23;;;6.38;;
65315;SDS011;51920;53.952;10.292;2024-02-26T13:58:11;12.57;;;6.38;;
65315;SDS011;51920;53.952;10.292;2024-02-26T14:00:40;12.77;;;6.63;;
65315;SDS011;51920;53.952;10.292;2024-02-26T14:03:08;14.70;;;6.30;;
65315;SDS011;51920;53.952;10.292;2024-02-26T14:05:35;13.05;;;6.68;;
65315;SDS011;51920;53.952;10.292;2024-02-26T14:08:02;11.68;;;6.22;;
65315;SDS011;51920;53.952;10.292;2024-02-26T14:10:29;20.30;;;8.98;;
65315;SDS011;51920;53.952;10.292;2024-02-26T14:13:01;16.05;;;7.88;;
65315;SDS011;51920;53.952;10.292;2024-02-26T14:15:28;14.57;;;7.10;;
65315;SDS011;51920;53.952;10.292;2024-02-26T14:17:58;14.85;;;7.57;;
65315;SDS011;51920;53.952;10.292;2024-02-26T14:20:25;14.15;;;7.00;;
65315;SDS011;51920;53.952;10.292;2024-02-26T14:22:53;14.93;;;7.90;;
65315;SDS011;51920;53.952;10.292;2024-02-26T14:25:20;12.82;;;6.18;;
65315;SDS011;51920;53.952;10.292;2024-02-26T14:27:48;12.90;;;6.17;;
65315;SDS011;51920;53.952;10.292;2024-02-26T14:30:15;13.80;;;6.15;;